Time;durP1;ratioP1;P1;durP2;ratioP2;P2;SDS_P1;SDS_P2;PMS_P1;PMS_P2;Temp;Humidity;BMP_temperature;BMP_pressure;BME280_temperature;BME280_humidity;BME280_pressure;Samples;Min_cycle;Max_cycle;Signal;HPM_P1;HPM_P2
2021/12/30 00:00:46;;;;;;;0.70;0.30;;;11.90;99.90;;;;;;4971215;28;20034;-74
2021/12/30 00:03:12;;;;;;;0.90;0.30;;;11.90;99.90;;;;;;4968797;28;20511;-74
2021/12/30 00:05:39;;;;;;;0.60;0.25;;;11.90;99.90;;;;;;4972216;28;20059;-74
2021/12/30 00:08:05;;;;;;;0.60;0.30;;;11.80;99.90;;;;;;4954600;28;20026;-75
2021/12/30 00:10:31;;;;;;;0.80;0.40;;;11.80;99.90;;;;;;4971773;28;20475;-75
2021/12/30 00:12:57;;;;;;;0.52;0.30;;;11.80;99.90;;;;;;4969848;28;20039;-74
2021/12/30 00:15:24;;;;;;;0.57;0.30;;;11.80;99.90;;;;;;4971101;28;20034;-75
2021/12/30 00:17:50;;;;;;;0.35;0.20;;;11.80;99.90;;;;;;4951747;28;20053;-74
2021/12/30 00:20:16;;;;;;;0.50;0.40;;;11.80;99.90;;;;;;4952059;28;20436;-75
2021/12/30 00:22:42;;;;;;;0.50;0.28;;;11.80;99.90;;;;;;4974445;28;20033;-75
2021/12/30 00:25:10;;;;;;;0.50;0.40;;;11.80;99.90;;;;;;4969325;28;20065;-75
2021/12/30 00:27:36;;;;;;;0.50;0.20;;;11.80;99.90;;;;;;4972277;28;20031;-74
2021/12/30 00:30:03;;;;;;;0.32;0.20;;;11.80;99.90;;;;;;4969769;28;20420;-74
2021/12/30 00:32:28;;;;;;;0.30;0.20;;;11.80;99.90;;;;;;4976518;28;20085;-74
2021/12/30 00:34:54;;;;;;;0.25;0.20;;;11.90;99.90;;;;;;4970707;28;20035;-74
2021/12/30 00:37:20;;;;;;;0.30;0.10;;;11.90;99.90;;;;;;4966641;28;20035;-74
2021/12/30 00:39:45;;;;;;;0.32;0.20;;;11.90;99.90;;;;;;4955357;28;20471;-75
2021/12/30 00:42:11;;;;;;;1.52;0.30;;;11.90;99.90;;;;;;4968544;28;20034;-74
2021/12/30 00:44:37;;;;;;;0.25;0.20;;;12.00;99.90;;;;;;4954711;28;20027;-74
2021/12/30 00:47:03;;;;;;;0.32;0.30;;;12.00;99.90;;;;;;4973973;28;20068;-74
2021/12/30 00:49:29;;;;;;;0.50;0.20;;;12.00;99.90;;;;;;4971886;28;20554;-74
2021/12/30 00:51:56;;;;;;;0.28;0.20;;;12.10;99.90;;;;;;4969854;28;20033;-75
2021/12/30 00:54:22;;;;;;;1.48;0.40;;;12.10;99.90;;;;;;4965629;28;20416;-75
2021/12/30 00:56:48;;;;;;;1.92;0.45;;;12.10;99.90;;;;;;4953515;28;20065;-75
2021/12/30 00:59:14;;;;;;;1.48;0.30;;;12.10;99.90;;;;;;4970279;28;20426;-75
2021/12/30 01:01:40;;;;;;;0.40;0.30;;;12.10;99.90;;;;;;4967378;28;20027;-75
2021/12/30 01:04:05;;;;;;;2.85;0.32;;;12.10;99.90;;;;;;4973261;28;20471;-75
2021/12/30 01:06:31;;;;;;;0.20;0.20;;;12.10;99.90;;;;;;4964757;28;20435;-75
2021/12/30 01:08:58;;;;;;;1.77;0.30;;;12.10;99.90;;;;;;4970077;28;20156;-75
2021/12/30 01:11:25;;;;;;;0.13;0.13;;;12.10;99.90;;;;;;4948309;28;20034;-75
2021/12/30 01:14:01;;;;;;;0.85;0.40;;;12.10;99.90;;;;;;4980128;28;20027;-75
2021/12/30 01:16:29;;;;;;;0.43;0.30;;;12.20;99.90;;;;;;4974953;28;20488;-71
2021/12/30 01:21:42;;;;;;;0.88;0.40;;;12.10;99.90;;;;;;4977124;28;20092;-72
2021/12/30 01:24:08;;;;;;;0.43;0.30;;;12.10;99.90;;;;;;4971587;28;20069;-72
2021/12/30 01:26:34;;;;;;;0.75;0.38;;;12.10;99.90;;;;;;4960222;28;20026;-73
2021/12/30 01:29:00;;;;;;;1.70;0.50;;;12.00;99.90;;;;;;4960394;28;20023;-72
2021/12/30 01:31:26;;;;;;;2.95;0.98;;;12.00;99.90;;;;;;4962751;28;20056;-72
2021/12/30 01:33:52;;;;;;;1.67;0.80;;;12.00;99.90;;;;;;4968619;28;20066;-72
2021/12/30 01:36:17;;;;;;;1.42;0.63;;;11.90;99.90;;;;;;4969364;28;20118;-73
2021/12/30 01:38:45;;;;;;;2.55;0.40;;;11.90;99.90;;;;;;4971919;28;20070;-72
2021/12/30 01:41:12;;;;;;;1.08;0.60;;;11.80;99.90;;;;;;4969217;28;20023;-72
2021/12/30 01:43:39;;;;;;;1.00;0.47;;;11.70;99.90;;;;;;4972460;28;20033;-72
2021/12/30 01:46:06;;;;;;;2.47;0.40;;;11.70;99.90;;;;;;4978269;28;20026;-73
2021/12/30 01:48:32;;;;;;;1.48;0.40;;;11.70;99.90;;;;;;4956390;28;20026;-73
2021/12/30 01:50:57;;;;;;;2.22;0.30;;;11.60;99.90;;;;;;4975518;28;20034;-72
2021/12/30 01:53:23;;;;;;;0.25;0.20;;;11.60;99.90;;;;;;4970888;28;20430;-73
2021/12/30 01:55:49;;;;;;;1.52;0.30;;;11.60;99.90;;;;;;4965427;28;20045;-73
2021/12/30 01:58:17;;;;;;;2.05;0.20;;;11.60;99.90;;;;;;4954258;28;20522;-74
2021/12/30 02:00:45;;;;;;;1.27;0.20;;;11.50;99.90;;;;;;4971804;28;20058;-74
2021/12/30 02:03:11;;;;;;;4.88;0.60;;;11.50;99.90;;;;;;4972013;28;20050;-73
2021/12/30 02:05:38;;;;;;;0.45;0.25;;;11.50;99.90;;;;;;4970585;28;20023;-73
2021/12/30 02:08:06;;;;;;;1.42;0.30;;;11.50;99.90;;;;;;4969090;28;20106;-73
2021/12/30 02:10:32;;;;;;;1.23;0.30;;;11.40;99.90;;;;;;4969412;28;20034;-73
2021/12/30 02:12:58;;;;;;;1.65;0.40;;;11.40;99.90;;;;;;4952266;28;20023;-72
2021/12/30 02:15:24;;;;;;;0.70;0.30;;;11.40;99.90;;;;;;4967280;28;20447;-73
2021/12/30 02:17:51;;;;;;;0.75;0.30;;;11.30;99.90;;;;;;4954238;28;20031;-72
2021/12/30 02:20:39;;;;;;;1.60;0.20;;;11.30;99.90;;;;;;4969040;28;20471;-74
2021/12/30 02:23:06;;;;;;;0.65;0.20;;;11.30;99.90;;;;;;4964786;28;20110;-74
2021/12/30 02:25:31;;;;;;;0.25;0.25;;;11.30;99.90;;;;;;4968835;28;20519;-73
2021/12/30 02:27:57;;;;;;;0.40;0.20;;;11.40;99.90;;;;;;4971408;28;20025;-73
2021/12/30 02:30:23;;;;;;;0.75;0.10;;;11.30;99.90;;;;;;4966702;28;20122;-73
2021/12/30 02:32:49;;;;;;;1.40;0.60;;;11.30;99.90;;;;;;4968448;28;20139;-73
2021/12/30 02:35:15;;;;;;;0.93;0.40;;;11.30;99.90;;;;;;4970216;28;20046;-73
2021/12/30 02:37:40;;;;;;;1.00;0.50;;;11.30;99.90;;;;;;4971735;28;20093;-72
2021/12/30 02:40:06;;;;;;;0.55;0.40;;;11.30;99.90;;;;;;4953581;28;20069;-73
2021/12/30 02:42:32;;;;;;;0.52;0.30;;;11.30;99.90;;;;;;4968996;28;20500;-73
2021/12/30 02:44:58;;;;;;;4.78;0.93;;;11.30;99.90;;;;;;4972801;28;20019;-73
2021/12/30 02:47:23;;;;;;;1.52;0.40;;;11.20;99.90;;;;;;4971643;28;20109;-73
2021/12/30 02:49:49;;;;;;;1.38;0.40;;;11.20;99.90;;;;;;4969350;28;20038;-73
2021/12/30 02:52:15;;;;;;;0.63;0.30;;;11.30;99.90;;;;;;4949845;28;20044;-73
2021/12/30 02:54:42;;;;;;;0.55;0.30;;;11.30;99.90;;;;;;4970546;28;20050;-73
2021/12/30 02:57:12;;;;;;;0.20;0.20;;;11.30;99.90;;;;;;4967856;28;20019;-73
2021/12/30 02:59:37;;;;;;;1.58;0.28;;;11.30;99.90;;;;;;4973585;28;20036;-73
2021/12/30 03:02:04;;;;;;;0.43;0.30;;;11.30;99.90;;;;;;4970792;28;20058;-72
2021/12/30 03:04:30;;;;;;;4.18;1.02;;;11.30;99.90;;;;;;4968857;28;20031;-73
2021/12/30 03:06:57;;;;;;;4.00;0.43;;;11.30;99.90;;;;;;4954528;28;20161;-73
2021/12/30 03:09:23;;;;;;;0.50;0.32;;;11.40;99.90;;;;;;4972887;28;20052;-73
2021/12/30 03:11:49;;;;;;;0.40;0.22;;;11.50;99.90;;;;;;4956184;28;20037;-73
2021/12/30 03:14:15;;;;;;;0.77;0.30;;;11.50;99.90;;;;;;4975322;28;20484;-73
2021/12/30 03:16:42;;;;;;;2.20;0.38;;;11.50;99.90;;;;;;4972872;28;20107;-73
2021/12/30 03:19:08;;;;;;;1.05;0.40;;;11.50;99.90;;;;;;4972645;28;20089;-72
2021/12/30 03:21:34;;;;;;;1.48;0.55;;;11.60;99.90;;;;;;4976694;28;20447;-73
2021/12/30 03:24:02;;;;;;;1.42;0.57;;;11.60;99.90;;;;;;4976767;28;20026;-73
2021/12/30 03:26:27;;;;;;;4.78;0.50;;;11.60;99.90;;;;;;4973577;28;20383;-73
2021/12/30 03:28:53;;;;;;;1.80;0.30;;;11.70;99.90;;;;;;4975372;28;20081;-73
2021/12/30 03:31:21;;;;;;;0.45;0.30;;;11.70;99.90;;;;;;4955340;28;20027;-73
2021/12/30 03:33:47;;;;;;;0.55;0.22;;;11.80;99.90;;;;;;4968699;28;20031;-74
2021/12/30 03:36:14;;;;;;;0.50;0.22;;;11.80;99.90;;;;;;4973946;28;20043;-73
2021/12/30 03:38:46;;;;;;;0.38;0.30;;;11.80;99.90;;;;;;4975885;28;20134;-74
2021/12/30 03:41:16;;;;;;;0.63;0.28;;;11.90;99.90;;;;;;4968116;28;20034;-73
2021/12/30 03:43:43;;;;;;;1.10;0.50;;;11.80;99.90;;;;;;4966335;28;20023;-73
2021/12/30 03:46:09;;;;;;;1.10;0.30;;;11.80;99.90;;;;;;4971536;28;20023;-74
2021/12/30 03:48:40;;;;;;;2.58;0.52;;;11.90;99.90;;;;;;4956321;28;20047;-73
2021/12/30 03:51:09;;;;;;;0.35;0.20;;;11.90;99.90;;;;;;4972245;28;20022;-74
2021/12/30 03:53:38;;;;;;;0.30;0.20;;;11.90;99.90;;;;;;4970766;28;20023;-73
2021/12/30 03:56:09;;;;;;;0.88;0.40;;;11.90;99.90;;;;;;4954799;28;20095;-73
2021/12/30 03:58:36;;;;;;;0.35;0.20;;;11.90;99.90;;;;;;4976049;28;20030;-73
2021/12/30 04:01:03;;;;;;;0.55;0.20;;;12.00;99.90;;;;;;4971549;28;20023;-73
2021/12/30 04:03:28;;;;;;;0.75;0.45;;;12.00;99.90;;;;;;4969655;28;20039;-73
2021/12/30 04:05:54;;;;;;;1.00;0.30;;;12.00;99.90;;;;;;4970962;28;20031;-73
2021/12/30 04:08:20;;;;;;;0.55;0.30;;;12.00;99.90;;;;;;4954753;28;20027;-73
2021/12/30 04:10:46;;;;;;;1.10;0.28;;;12.00;99.90;;;;;;4972804;28;20567;-73
2021/12/30 04:13:13;;;;;;;1.45;0.20;;;12.00;99.90;;;;;;4952918;28;20117;-73
2021/12/30 04:15:38;;;;;;;1.33;0.20;;;12.00;99.90;;;;;;4971078;28;20149;-74
2021/12/30 04:18:04;;;;;;;0.47;0.20;;;12.00;99.90;;;;;;4967934;28;20144;-73
2021/12/30 04:20:30;;;;;;;0.95;0.30;;;12.00;99.90;;;;;;4971600;28;20547;-73
2021/12/30 04:22:56;;;;;;;0.30;0.20;;;12.00;99.90;;;;;;4968594;28;20042;-73
2021/12/30 04:25:22;;;;;;;0.98;0.30;;;12.00;99.90;;;;;;4982903;28;20076;-75
2021/12/30 04:27:47;;;;;;;0.35;0.30;;;12.00;99.90;;;;;;4969020;28;20041;-75
2021/12/30 04:30:15;;;;;;;0.65;0.32;;;12.00;99.90;;;;;;4965739;28;20436;-75
2021/12/30 04:32:42;;;;;;;0.47;0.30;;;12.00;99.90;;;;;;4951967;28;20031;-75
2021/12/30 04:35:09;;;;;;;0.88;0.35;;;12.00;99.90;;;;;;4965026;28;20090;-75
2021/12/30 04:37:34;;;;;;;0.30;0.30;;;12.00;99.90;;;;;;4971449;28;20030;-75
2021/12/30 04:40:02;;;;;;;0.60;0.40;;;12.00;99.90;;;;;;4970765;28;20536;-74
2021/12/30 04:42:28;;;;;;;0.68;0.40;;;12.00;99.90;;;;;;4963737;28;20035;-72
2021/12/30 04:44:54;;;;;;;1.02;0.50;;;12.00;99.90;;;;;;4974149;28;20030;-74
2021/12/30 04:47:20;;;;;;;0.50;0.38;;;12.00;99.90;;;;;;4964356;28;20026;-73
2021/12/30 04:49:46;;;;;;;0.77;0.50;;;12.00;99.90;;;;;;4968775;28;20015;-72
2021/12/30 04:52:12;;;;;;;3.70;0.85;;;12.00;99.90;;;;;;4972020;28;20783;-73
2021/12/30 04:54:37;;;;;;;0.50;0.30;;;12.00;99.90;;;;;;4974503;28;20034;-72
2021/12/30 04:57:04;;;;;;;0.82;0.50;;;12.00;99.90;;;;;;4973294;28;20026;-72
2021/12/30 04:59:29;;;;;;;0.70;0.30;;;12.00;99.90;;;;;;4967632;28;20080;-73
2021/12/30 05:01:55;;;;;;;0.47;0.38;;;12.00;99.90;;;;;;4970350;28;20038;-73
2021/12/30 05:04:21;;;;;;;0.40;0.30;;;12.00;99.90;;;;;;4967213;28;20027;-75
2021/12/30 05:06:46;;;;;;;0.68;0.30;;;12.00;99.90;;;;;;4969206;28;20050;-73
2021/12/30 05:09:12;;;;;;;1.85;0.20;;;12.00;99.90;;;;;;4955828;28;20121;-74
2021/12/30 05:11:41;;;;;;;0.47;0.20;;;12.00;99.90;;;;;;4967475;28;20077;-74
2021/12/30 05:14:11;;;;;;;1.13;0.40;;;12.00;99.90;;;;;;4970820;28;20034;-74
2021/12/30 05:16:38;;;;;;;0.57;0.32;;;12.00;99.90;;;;;;4953593;28;20041;-74
2021/12/30 05:19:05;;;;;;;2.33;0.20;;;12.00;99.90;;;;;;4960073;28;20850;-74
2021/12/30 05:21:31;;;;;;;0.30;0.30;;;12.00;99.90;;;;;;4969990;28;20041;-73
2021/12/30 05:23:57;;;;;;;0.43;0.30;;;12.00;99.90;;;;;;4970092;28;20058;-73
2021/12/30 05:26:27;;;;;;;0.35;0.20;;;12.00;99.90;;;;;;4953378;28;20114;-73
2021/12/30 05:28:54;;;;;;;1.08;0.40;;;12.00;99.90;;;;;;4965470;28;20034;-74
2021/12/30 05:31:20;;;;;;;1.23;0.40;;;12.10;99.90;;;;;;4971387;28;20196;-73
2021/12/30 05:33:45;;;;;;;2.15;0.30;;;12.10;99.90;;;;;;4971053;28;20101;-75
2021/12/30 05:36:11;;;;;;;1.50;0.20;;;12.10;99.90;;;;;;4951953;28;20030;-74
2021/12/30 05:38:37;;;;;;;1.60;0.60;;;12.10;99.90;;;;;;4950617;28;20492;-75
2021/12/30 05:41:03;;;;;;;0.20;0.17;;;12.20;99.90;;;;;;4967502;28;20492;-75
2021/12/30 05:43:28;;;;;;;0.47;0.40;;;12.20;99.90;;;;;;4975186;28;20039;-75
2021/12/30 05:45:57;;;;;;;0.47;0.30;;;12.20;99.90;;;;;;4968686;28;20827;-75
2021/12/30 05:48:22;;;;;;;0.32;0.20;;;12.20;99.90;;;;;;4966463;28;20078;-75
2021/12/30 05:50:48;;;;;;;0.25;0.20;;;12.30;99.90;;;;;;4953087;28;20809;-75
2021/12/30 05:53:14;;;;;;;0.30;0.10;;;12.30;99.90;;;;;;4972948;28;20026;-75
2021/12/30 05:55:40;;;;;;;0.65;0.20;;;12.30;99.90;;;;;;4967533;28;20034;-75
2021/12/30 05:58:05;;;;;;;0.32;0.10;;;12.30;99.90;;;;;;4968029;28;20038;-75
2021/12/30 06:00:32;;;;;;;0.20;0.13;;;12.40;99.90;;;;;;4975374;28;20136;-74
2021/12/30 06:02:59;;;;;;;0.17;0.10;;;12.40;99.90;;;;;;4978590;28;20035;-76
2021/12/30 06:05:25;;;;;;;1.00;0.20;;;12.40;99.90;;;;;;4969379;28;20038;-74
2021/12/30 06:07:51;;;;;;;0.50;0.20;;;12.40;99.90;;;;;;4971960;28;20026;-74
2021/12/30 06:10:17;;;;;;;0.20;0.10;;;12.40;99.90;;;;;;4954368;28;20065;-74
2021/12/30 06:12:43;;;;;;;0.20;0.20;;;12.40;99.90;;;;;;4976734;28;20405;-73
2021/12/30 06:15:11;;;;;;;0.65;0.20;;;12.40;99.90;;;;;;4974340;28;20034;-74
2021/12/30 06:17:37;;;;;;;0.20;0.20;;;12.40;99.90;;;;;;4954301;28;20037;-74
2021/12/30 06:20:06;;;;;;;0.30;0.13;;;12.40;99.90;;;;;;4973278;28;20051;-73
2021/12/30 06:22:31;;;;;;;0.80;0.22;;;12.40;99.90;;;;;;4956305;28;20400;-73
2021/12/30 06:24:57;;;;;;;0.38;0.20;;;12.50;99.90;;;;;;4975417;28;20023;-73
2021/12/30 06:27:23;;;;;;;0.25;0.10;;;12.50;99.90;;;;;;4970290;28;20035;-74
2021/12/30 06:29:51;;;;;;;0.13;0.10;;;12.50;99.90;;;;;;4978601;28;20026;-72
2021/12/30 06:32:17;;;;;;;0.20;0.15;;;12.50;99.90;;;;;;4975708;28;20456;-72
2021/12/30 06:34:43;;;;;;;0.30;0.10;;;12.60;99.90;;;;;;4973236;28;20101;-72
2021/12/30 06:37:09;;;;;;;0.25;0.20;;;12.60;99.90;;;;;;4974919;28;20030;-73
2021/12/30 06:39:35;;;;;;;0.52;0.22;;;12.60;99.90;;;;;;4971421;28;20153;-73
2021/12/30 06:42:00;;;;;;;0.30;0.10;;;12.60;99.90;;;;;;4961181;28;20087;-73
2021/12/30 06:44:26;;;;;;;0.43;0.20;;;12.60;99.90;;;;;;4975666;28;20027;-72
2021/12/30 06:46:56;;;;;;;0.38;0.20;;;12.60;99.90;;;;;;4974524;28;20031;-73
2021/12/30 06:49:23;;;;;;;0.30;0.10;;;12.60;99.90;;;;;;4973827;28;20021;-73
2021/12/30 06:51:49;;;;;;;1.10;0.10;;;12.60;99.90;;;;;;4973701;28;20033;-74
2021/12/30 06:54:15;;;;;;;0.20;0.15;;;12.70;99.90;;;;;;4968205;28;20118;-74
2021/12/30 06:56:41;;;;;;;1.15;0.60;;;12.70;99.90;;;;;;4972813;28;20038;-74
2021/12/30 06:59:06;;;;;;;0.30;0.15;;;12.70;99.90;;;;;;4974494;28;20613;-74
2021/12/30 07:01:32;;;;;;;1.35;0.30;;;12.70;99.90;;;;;;4975724;28;20103;-75
2021/12/30 07:03:58;;;;;;;1.95;0.30;;;12.70;99.90;;;;;;4973298;28;20081;-73
2021/12/30 07:06:24;;;;;;;0.25;0.20;;;12.70;99.90;;;;;;4974586;28;20391;-76
2021/12/30 07:08:49;;;;;;;0.40;0.20;;;12.70;99.90;;;;;;4968974;28;20033;-73
2021/12/30 07:11:15;;;;;;;0.40;0.20;;;12.70;99.90;;;;;;4975638;28;20015;-74
2021/12/30 07:13:41;;;;;;;0.68;0.10;;;12.70;99.90;;;;;;4970452;28;20093;-73
2021/12/30 07:16:07;;;;;;;0.63;0.20;;;12.70;99.90;;;;;;4974411;28;20120;-76
2021/12/30 07:18:33;;;;;;;0.13;0.10;;;12.70;99.90;;;;;;4971926;28;20660;-75
2021/12/30 07:20:58;;;;;;;0.43;0.20;;;12.70;99.90;;;;;;4969333;28;20042;-76
2021/12/30 07:23:24;;;;;;;0.10;0.10;;;12.70;99.90;;;;;;4978176;28;20038;-76
2021/12/30 07:25:50;;;;;;;0.80;0.20;;;12.70;99.90;;;;;;4970509;28;21315;-75
2021/12/30 07:28:15;;;;;;;0.25;0.20;;;12.70;99.90;;;;;;4972188;28;20041;-74
2021/12/30 07:30:41;;;;;;;0.20;0.20;;;12.70;99.90;;;;;;4961814;28;20480;-74
2021/12/30 07:33:07;;;;;;;0.30;0.20;;;12.70;99.90;;;;;;4969265;28;20027;-73
2021/12/30 07:35:35;;;;;;;1.65;0.20;;;12.70;99.90;;;;;;4973386;28;20037;-73
2021/12/30 07:38:01;;;;;;;0.93;0.30;;;12.70;99.90;;;;;;4968398;28;20046;-73
2021/12/30 07:40:27;;;;;;;0.30;0.20;;;12.70;99.90;;;;;;4965737;28;20039;-73
2021/12/30 07:42:53;;;;;;;1.60;0.20;;;12.70;99.90;;;;;;4967291;28;20038;-74
2021/12/30 07:45:19;;;;;;;0.30;0.20;;;12.70;99.90;;;;;;4963792;28;20081;-73
2021/12/30 07:47:45;;;;;;;1.05;0.20;;;12.70;99.90;;;;;;4970409;28;20059;-75
2021/12/30 07:50:12;;;;;;;0.28;0.10;;;12.70;99.90;;;;;;4951759;28;20023;-73
2021/12/30 07:52:38;;;;;;;1.80;1.70;;;12.80;99.90;;;;;;4968108;28;20030;-74
2021/12/30 07:55:05;;;;;;;0.55;0.47;;;12.80;99.90;;;;;;4974501;28;20054;-73
2021/12/30 07:57:31;;;;;;;0.50;0.30;;;12.80;99.90;;;;;;4970926;28;20524;-74
2021/12/30 07:59:57;;;;;;;0.38;0.20;;;12.70;99.90;;;;;;4964220;28;20062;-74
2021/12/30 08:02:23;;;;;;;0.75;0.30;;;12.70;99.90;;;;;;4968961;28;20026;-74
2021/12/30 08:04:48;;;;;;;1.27;0.40;;;12.80;99.90;;;;;;4972810;28;20153;-74
2021/12/30 08:07:19;;;;;;;0.63;0.30;;;12.70;99.90;;;;;;4961364;28;20138;-74
2021/12/30 08:09:45;;;;;;;0.20;0.20;;;12.70;99.90;;;;;;4973369;28;20026;-74
2021/12/30 08:12:10;;;;;;;0.75;0.22;;;12.80;99.90;;;;;;4967592;28;20396;-74
2021/12/30 08:14:36;;;;;;;0.50;0.28;;;12.80;99.90;;;;;;4970385;28;20036;-74
2021/12/30 08:17:02;;;;;;;0.85;0.30;;;12.80;99.90;;;;;;4973152;28;20087;-74
2021/12/30 08:19:28;;;;;;;0.40;0.30;;;12.80;99.90;;;;;;4971361;28;20113;-74
2021/12/30 08:21:53;;;;;;;0.22;0.20;;;12.90;99.90;;;;;;4969481;28;20031;-74
2021/12/30 08:24:21;;;;;;;0.28;0.17;;;12.90;99.90;;;;;;4970696;28;20567;-74
2021/12/30 08:26:47;;;;;;;0.65;0.30;;;12.90;99.90;;;;;;4954181;28;20058;-74
2021/12/30 08:29:13;;;;;;;1.75;0.22;;;13.00;99.90;;;;;;4969889;28;20027;-74
2021/12/30 08:31:39;;;;;;;1.02;0.28;;;13.00;99.90;;;;;;4955982;28;20030;-74
2021/12/30 08:34:05;;;;;;;0.85;0.25;;;13.10;99.90;;;;;;4972687;28;20023;-74
2021/12/30 08:36:32;;;;;;;0.73;0.20;;;13.00;99.90;;;;;;4971306;28;20030;-74
2021/12/30 08:38:58;;;;;;;0.52;0.22;;;13.10;99.90;;;;;;4950060;28;20122;-75
2021/12/30 08:41:24;;;;;;;0.43;0.30;;;13.00;99.90;;;;;;4961981;28;20118;-74
2021/12/30 08:43:49;;;;;;;0.38;0.20;;;13.00;99.90;;;;;;4972647;28;21082;-74
2021/12/30 08:46:15;;;;;;;0.57;0.30;;;13.00;99.90;;;;;;4968673;28;20029;-74
2021/12/30 08:48:41;;;;;;;3.92;0.45;;;13.00;99.90;;;;;;4971010;28;20113;-74
2021/12/30 08:51:07;;;;;;;1.83;0.40;;;13.00;99.90;;;;;;4954570;28;20480;-75
2021/12/30 08:53:40;;;;;;;0.60;0.40;;;13.00;99.90;;;;;;4970429;28;20094;-75
2021/12/30 08:56:08;;;;;;;1.50;0.40;;;13.00;99.90;;;;;;4952620;28;20035;-75
2021/12/30 08:58:34;;;;;;;0.60;0.30;;;13.00;99.90;;;;;;4973321;28;20113;-75
2021/12/30 09:01:00;;;;;;;0.82;0.20;;;13.00;99.90;;;;;;4977208;28;20463;-74
2021/12/30 09:03:26;;;;;;;0.85;0.43;;;13.10;99.90;;;;;;4974721;28;20117;-75
2021/12/30 09:05:52;;;;;;;0.38;0.20;;;13.20;99.90;;;;;;4970892;28;20023;-74
2021/12/30 09:08:17;;;;;;;0.80;0.30;;;13.20;99.90;;;;;;4968361;28;20069;-74
2021/12/30 09:10:45;;;;;;;0.85;0.47;;;13.20;99.90;;;;;;4961375;28;20034;-75
2021/12/30 09:13:13;;;;;;;0.43;0.20;;;13.20;99.90;;;;;;4959616;28;20503;-75
2021/12/30 09:15:39;;;;;;;0.93;0.40;;;13.20;99.90;;;;;;4967542;28;20114;-75
2021/12/30 09:18:06;;;;;;;0.55;0.30;;;13.20;99.90;;;;;;4967824;28;20118;-75
2021/12/30 09:20:39;;;;;;;2.10;0.20;;;13.20;99.90;;;;;;4973101;28;20019;-75
2021/12/30 09:23:07;;;;;;;0.57;0.35;;;13.30;99.90;;;;;;4974673;28;20022;-74
2021/12/30 09:25:32;;;;;;;0.95;0.30;;;13.40;99.90;;;;;;4954047;28;20495;-74
2021/12/30 09:27:59;;;;;;;0.50;0.25;;;13.40;99.90;;;;;;4970197;28;20027;-74
2021/12/30 09:30:26;;;;;;;1.40;0.30;;;13.40;99.90;;;;;;4973988;28;20038;-74
2021/12/30 09:32:55;;;;;;;1.00;0.57;;;13.60;99.90;;;;;;4977517;28;20023;-75
2021/12/30 09:35:21;;;;;;;1.25;0.45;;;13.60;99.90;;;;;;4972009;28;20480;-75
2021/12/30 09:37:47;;;;;;;0.30;0.20;;;13.70;99.90;;;;;;4975984;28;20035;-75
2021/12/30 09:40:15;;;;;;;1.33;0.38;;;13.90;99.90;;;;;;4975663;28;20039;-74
2021/12/30 09:42:50;;;;;;;0.52;0.30;;;14.00;99.90;;;;;;4976162;28;20027;-74
2021/12/30 09:45:17;;;;;;;0.98;0.30;;;14.10;99.90;;;;;;4969904;28;20027;-76
2021/12/30 09:47:51;;;;;;;0.77;0.22;;;14.20;99.90;;;;;;4972046;28;20050;-75
2021/12/30 09:50:20;;;;;;;0.32;0.20;;;14.30;99.90;;;;;;4968085;28;20555;-75
2021/12/30 09:52:46;;;;;;;0.22;0.20;;;14.40;99.90;;;;;;4965545;28;20089;-74
2021/12/30 09:55:12;;;;;;;0.68;0.30;;;14.50;99.90;;;;;;4965039;28;20035;-75
2021/12/30 09:57:38;;;;;;;0.20;0.20;;;14.60;99.90;;;;;;4954861;28;20057;-75
2021/12/30 10:00:08;;;;;;;2.50;0.57;;;14.60;99.90;;;;;;4975087;28;20050;-75
2021/12/30 10:02:34;;;;;;;2.85;0.57;;;14.70;99.90;;;;;;4976125;28;20153;-75
2021/12/30 10:05:09;;;;;;;1.80;0.57;;;14.80;99.90;;;;;;4981212;28;20440;-75
2021/12/30 10:07:39;;;;;;;0.60;0.30;;;14.80;99.90;;;;;;4969811;28;20110;-76
2021/12/30 10:10:28;;;;;;;0.60;0.30;;;14.80;99.90;;;;;;4970565;28;20037;-75
2021/12/30 10:12:54;;;;;;;1.95;0.30;;;14.80;99.90;;;;;;4972507;28;20035;-76
2021/12/30 10:15:24;;;;;;;7.15;0.50;;;14.90;99.90;;;;;;4971818;28;20022;-76
2021/12/30 10:18:00;;;;;;;1.05;0.40;;;14.90;99.90;;;;;;4972967;28;20030;-76
2021/12/30 10:20:29;;;;;;;0.85;0.40;;;14.90;99.90;;;;;;4975236;28;20077;-76
2021/12/30 10:23:07;;;;;;;1.25;0.57;;;14.90;99.90;;;;;;4973639;28;20027;-76
2021/12/30 10:25:37;;;;;;;0.52;0.30;;;14.90;99.90;;;;;;4973265;28;20270;-76
2021/12/30 10:28:24;;;;;;;0.80;0.40;;;15.00;99.90;;;;;;4961808;28;20097;-76
2021/12/30 10:30:53;;;;;;;0.40;0.30;;;15.00;99.90;;;;;;4965502;28;20022;-74
2021/12/30 10:33:20;;;;;;;0.93;0.40;;;15.00;99.90;;;;;;4968352;28;20089;-76
2021/12/30 10:35:47;;;;;;;0.73;0.40;;;15.00;99.90;;;;;;4969991;28;20464;-76
2021/12/30 10:38:14;;;;;;;2.10;0.35;;;14.90;99.90;;;;;;4969126;28;20030;-77
2021/12/30 10:40:46;;;;;;;0.52;0.30;;;14.90;99.90;;;;;;4968827;28;20047;-76
2021/12/30 10:44:05;;;;;;;28.08;12.70;;;14.90;99.90;;;;;;4969227;28;20028;-76
2021/12/30 10:46:20;;;;;;;23.73;11.00;;;14.90;99.90;;;;;;4957424;28;20440;-76
2021/12/30 10:48:55;;;;;;;4.47;2.03;;;15.00;99.90;;;;;;4974508;28;20030;-75
2021/12/30 10:51:28;;;;;;;4.88;1.92;;;15.00;99.90;;;;;;4998469;22;20066;-83
2021/12/30 10:53:57;;;;;;;2.03;1.10;;;15.00;99.90;;;;;;4998305;28;20034;-83
2021/12/30 10:56:30;;;;;;;2.75;1.15;;;15.00;99.90;;;;;;5019191;28;20025;-83
2021/12/30 10:59:15;;;;;;;3.15;0.70;;;15.10;99.90;;;;;;4999611;28;20394;-83
2021/12/30 11:01:43;;;;;;;11.95;5.57;;;15.10;99.90;;;;;;5020531;28;20049;-82
2021/12/30 11:04:10;;;;;;;4.15;2.20;;;15.10;99.90;;;;;;5010152;28;20021;-83
2021/12/30 11:06:36;;;;;;;0.90;0.50;;;15.10;99.90;;;;;;5018638;28;20539;-83
2021/12/30 11:09:15;;;;;;;4.10;1.42;;;15.10;99.90;;;;;;5017756;28;20117;-84
2021/12/30 11:11:54;;;;;;;4.55;2.75;;;15.00;99.90;;;;;;5011380;28;20017;-83
2021/12/30 11:14:27;;;;;;;2.35;1.60;;;15.00;99.90;;;;;;5023809;28;20021;-83
2021/12/30 11:16:59;;;;;;;30.25;12.32;;;15.00;99.90;;;;;;5002948;28;20081;-82
2021/12/30 11:19:26;;;;;;;10.95;5.18;;;15.00;99.90;;;;;;5015412;28;20030;-83
2021/12/30 11:21:53;;;;;;;12.82;5.72;;;15.00;99.90;;;;;;5029153;28;20038;-83
2021/12/30 11:24:20;;;;;;;6.65;2.78;;;14.90;99.90;;;;;;5004505;28;20030;-83
2021/12/30 11:26:47;;;;;;;5.10;2.15;;;14.90;99.90;;;;;;5021003;28;20076;-83
2021/12/30 11:29:12;;;;;;;11.85;4.40;;;14.80;99.90;;;;;;4998196;28;20046;-82
2021/12/30 11:31:38;;;;;;;17.17;6.88;;;14.80;99.90;;;;;;5023693;28;20136;-83
2021/12/30 11:34:05;;;;;;;2.67;1.25;;;14.90;99.90;;;;;;5018049;28;20067;-83
2021/12/30 11:36:33;;;;;;;2.20;1.20;;;14.90;99.90;;;;;;5000921;28;20030;-82
2021/12/30 11:39:03;;;;;;;1.58;0.70;;;14.90;99.90;;;;;;5020884;28;20024;-83
2021/12/30 11:41:32;;;;;;;1.48;0.82;;;14.90;99.90;;;;;;5008580;28;20050;-82
2021/12/30 11:43:58;;;;;;;3.42;1.58;;;14.90;99.90;;;;;;5005226;28;20429;-82
2021/12/30 11:46:44;;;;;;;4.75;2.75;;;15.00;99.90;;;;;;5021151;28;20026;-83
2021/12/30 11:49:12;;;;;;;3.92;1.63;;;15.00;99.90;;;;;;5022374;28;20061;-82
2021/12/30 11:51:41;;;;;;;4.47;2.00;;;15.00;99.90;;;;;;5003868;28;20030;-83
2021/12/30 11:54:41;;;;;;;1.30;0.77;;;15.10;99.90;;;;;;5025891;28;20026;-83
2021/12/30 11:57:34;;;;;;;17.50;5.47;;;15.10;99.90;;;;;;5017908;28;20057;-83
2021/12/30 12:00:36;;;;;;;7.57;2.17;;;15.20;99.90;;;;;;5015303;28;20109;-83
2021/12/30 12:03:02;;;;;;;3.90;1.02;;;15.20;99.90;;;;;;5021458;28;20073;-83
2021/12/30 12:05:44;;;;;;;0.40;0.30;;;15.20;99.90;;;;;;5017266;28;20095;-84
2021/12/30 12:08:12;;;;;;;9.88;2.28;;;15.20;99.90;;;;;;5017718;28;20032;-83
2021/12/30 12:10:40;;;;;;;4.53;2.72;;;15.30;99.90;;;;;;5012225;28;20109;-83
2021/12/30 12:13:42;;;;;;;4.15;0.38;;;15.30;99.90;;;;;;5003333;28;20033;-84
2021/12/30 12:16:08;;;;;;;0.47;0.38;;;15.40;99.90;;;;;;4940131;29;20049;-83
2021/12/30 12:18:34;;;;;;;0.90;0.40;;;15.50;99.90;;;;;;5007409;28;20091;-83
2021/12/30 12:21:03;;;;;;;0.40;0.30;;;15.40;99.90;;;;;;5014923;28;20033;-83
2021/12/30 12:23:42;;;;;;;0.88;0.40;;;15.40;99.90;;;;;;5013966;28;20074;-84
2021/12/30 12:26:09;;;;;;;0.88;0.22;;;15.50;99.90;;;;;;5014842;28;20372;-83
2021/12/30 12:28:36;;;;;;;0.35;0.35;;;15.50;99.90;;;;;;5017310;28;20040;-83
2021/12/30 12:31:06;;;;;;;0.90;0.43;;;15.40;99.90;;;;;;5023652;28;20033;-83
2021/12/30 12:33:33;;;;;;;1.17;0.30;;;15.50;99.90;;;;;;5024392;28;20041;-83
2021/12/30 12:36:01;;;;;;;0.60;0.25;;;15.50;99.90;;;;;;5002078;28;20416;-84
2021/12/30 12:38:43;;;;;;;0.80;0.35;;;15.50;99.90;;;;;;5001081;28;20040;-83
2021/12/30 12:41:36;;;;;;;1.20;0.28;;;15.50;99.90;;;;;;5014301;28;20026;-83
2021/12/30 12:44:04;;;;;;;0.40;0.40;;;15.60;99.90;;;;;;5021113;28;20117;-83
2021/12/30 12:46:42;;;;;;;0.10;0.10;;;15.60;99.90;;;;;;5026185;28;20094;-83
2021/12/30 12:49:08;;;;;;;1.63;0.22;;;15.60;99.90;;;;;;5018325;28;20429;-83
2021/12/30 12:51:36;;;;;;;0.50;0.20;;;15.70;99.90;;;;;;5023419;28;20021;-83